Time;durP1;ratioP1;P1;durP2;ratioP2;P2;SDS_P1;SDS_P2;PMS_P1;PMS_P2;Temp;Humidity;BMP_temperature;BMP_pressure;BME280_temperature;BME280_humidity;BME280_pressure;Samples;Min_cycle;Max_cycle;Signal;HPM_P1;HPM_P2
2021/01/31 00:02:25;;;;;;;0.70;0.70;;;;;;;;;;4968102;28;20202;-78
2021/01/31 00:04:52;;;;;;;0.33;0.33;;;;;;;;;;4985211;28;20487;-77
2021/01/31 00:07:19;;;;;;;0.30;0.30;;;;;;;;;;4967119;28;20223;-78
2021/01/31 00:09:48;;;;;;;0.30;0.30;;;;;;;;;;4979563;28;20437;-78
2021/01/31 00:12:14;;;;;;;0.33;0.33;;;;;;;;;;4982111;28;20231;-78
2021/01/31 00:14:40;;;;;;;0.30;0.30;;;;;;;;;;4964231;28;20620;-74
2021/01/31 00:17:07;;;;;;;0.30;0.30;;;;;;;;;;4986702;28;20210;-78
2021/01/31 00:19:33;;;;;;;0.30;0.30;;;;;;;;;;4965295;28;20240;-78
2021/01/31 00:22:01;;;;;;;0.30;0.30;;;;;;;;;;4982564;28;20285;-76
2021/01/31 00:24:28;;;;;;;0.30;0.30;;;;;;;;;;4982734;28;20220;-76
2021/01/31 00:26:55;;;;;;;0.67;0.67;;;;;;;;;;4983105;28;20210;-75
2021/01/31 00:29:21;;;;;;;0.33;0.33;;;;;;;;;;4966657;28;20275;-80
2021/01/31 00:31:47;;;;;;;1.73;1.63;;;;;;;;;;4965841;28;20333;-77
2021/01/31 00:34:14;;;;;;;0.50;0.50;;;;;;;;;;4984752;28;20236;-78
2021/01/31 00:36:41;;;;;;;0.30;0.30;;;;;;;;;;4967740;28;20608;-77
2021/01/31 00:39:08;;;;;;;1.13;1.13;;;;;;;;;;4968618;28;20277;-78
2021/01/31 00:41:36;;;;;;;0.30;0.30;;;;;;;;;;4967855;28;20216;-79
2021/01/31 00:44:02;;;;;;;0.40;0.40;;;;;;;;;;4984047;28;20209;-80
2021/01/31 00:46:31;;;;;;;0.40;0.40;;;;;;;;;;4965998;28;20206;-77
2021/01/31 00:48:57;;;;;;;0.37;0.37;;;;;;;;;;5002086;28;20210;-78
2021/01/31 00:51:24;;;;;;;0.87;0.87;;;;;;;;;;4966237;28;20216;-77
2021/01/31 00:53:50;;;;;;;0.30;0.30;;;;;;;;;;4983972;28;20394;-76
2021/01/31 00:56:16;;;;;;;1.03;1.03;;;;;;;;;;4966495;28;20202;-78
2021/01/31 00:58:44;;;;;;;0.33;0.33;;;;;;;;;;4984917;28;20224;-76
2021/01/31 01:01:11;;;;;;;0.33;0.33;;;;;;;;;;4967250;28;20400;-81
2021/01/31 01:03:37;;;;;;;0.47;0.47;;;;;;;;;;4967961;28;20197;-74
2021/01/31 01:06:04;;;;;;;0.30;0.30;;;;;;;;;;4968231;28;20277;-78
2021/01/31 01:08:30;;;;;;;0.40;0.40;;;;;;;;;;4984860;28;20465;-78
2021/01/31 01:10:57;;;;;;;0.30;0.30;;;;;;;;;;4967813;28;20223;-78
2021/01/31 01:13:23;;;;;;;0.30;0.30;;;;;;;;;;4968181;28;20224;-76
2021/01/31 01:15:50;;;;;;;0.30;0.30;;;;;;;;;;5001516;28;20206;-77
2021/01/31 01:18:16;;;;;;;0.30;0.30;;;;;;;;;;4983285;28;20229;-76
2021/01/31 01:20:43;;;;;;;0.40;0.40;;;;;;;;;;4966477;28;20504;-77
2021/01/31 01:23:09;;;;;;;0.30;0.30;;;;;;;;;;4966145;28;20236;-77
2021/01/31 01:25:35;;;;;;;0.30;0.30;;;;;;;;;;4981155;28;20227;-75
2021/01/31 01:28:02;;;;;;;0.30;0.30;;;;;;;;;;4966629;28;20281;-77
2021/01/31 01:30:29;;;;;;;0.30;0.30;;;;;;;;;;4966464;28;20198;-76
2021/01/31 01:32:57;;;;;;;0.60;0.60;;;;;;;;;;4984386;28;20224;-78
2021/01/31 01:35:23;;;;;;;0.30;0.30;;;;;;;;;;4984839;28;20202;-78
2021/01/31 01:37:49;;;;;;;0.30;0.30;;;;;;;;;;4985768;28;20205;-78
2021/01/31 01:40:17;;;;;;;0.30;0.30;;;;;;;;;;4967693;28;20524;-77
2021/01/31 01:42:44;;;;;;;0.30;0.30;;;;;;;;;;4980635;28;20226;-78
2021/01/31 01:45:11;;;;;;;0.30;0.30;;;;;;;;;;4968455;28;21094;-75
2021/01/31 01:47:37;;;;;;;0.33;0.33;;;;;;;;;;4962911;28;20214;-77
2021/01/31 01:50:06;;;;;;;0.30;0.30;;;;;;;;;;4982585;28;20512;-77
2021/01/31 01:52:35;;;;;;;0.30;0.30;;;;;;;;;;4984841;28;20222;-78
2021/01/31 01:55:03;;;;;;;0.30;0.30;;;;;;;;;;4985784;28;20206;-78
2021/01/31 01:57:34;;;;;;;0.30;0.30;;;;;;;;;;4985836;28;20202;-78
2021/01/31 02:00:01;;;;;;;0.30;0.30;;;;;;;;;;4986022;28;20493;-78
2021/01/31 02:02:29;;;;;;;0.40;0.40;;;;;;;;;;4983992;28;20204;-78
2021/01/31 02:04:56;;;;;;;0.30;0.30;;;;;;;;;;4970717;28;20198;-77
2021/01/31 02:07:23;;;;;;;0.30;0.30;;;;;;;;;;4988200;28;20209;-77
2021/01/31 02:09:50;;;;;;;0.30;0.30;;;;;;;;;;4969439;28;20206;-77
2021/01/31 02:12:21;;;;;;;0.30;0.30;;;;;;;;;;4989235;28;20446;-77
2021/01/31 02:14:48;;;;;;;0.30;0.30;;;;;;;;;;4988525;28;20481;-78
2021/01/31 02:17:17;;;;;;;0.33;0.33;;;;;;;;;;4989345;28;20205;-78
2021/01/31 02:20:08;;;;;;;0.30;0.30;;;;;;;;;;4988445;28;20212;-78
2021/01/31 02:22:51;;;;;;;0.30;0.30;;;;;;;;;;4977811;28;20220;-78
2021/01/31 02:25:32;;;;;;;0.30;0.30;;;;;;;;;;4986544;28;20214;-78
2021/01/31 02:28:10;;;;;;;0.30;0.30;;;;;;;;;;4987968;28;20208;-78
2021/01/31 02:30:52;;;;;;;0.30;0.30;;;;;;;;;;4986989;28;20208;-76
2021/01/31 02:33:27;;;;;;;0.30;0.30;;;;;;;;;;4983787;28;20227;-78
2021/01/31 02:35:58;;;;;;;0.40;0.40;;;;;;;;;;4987087;28;20277;-78
2021/01/31 02:38:27;;;;;;;0.40;0.40;;;;;;;;;;5005757;28;20377;-77
2021/01/31 02:40:56;;;;;;;0.40;0.40;;;;;;;;;;4987643;28;20220;-77
2021/01/31 02:43:28;;;;;;;0.30;0.30;;;;;;;;;;4987278;28;20518;-77
2021/01/31 02:45:56;;;;;;;0.33;0.33;;;;;;;;;;5005659;28;20493;-75
2021/01/31 02:48:26;;;;;;;0.33;0.33;;;;;;;;;;4987611;28;20215;-78
2021/01/31 02:50:56;;;;;;;0.30;0.30;;;;;;;;;;4985182;28;20197;-77
2021/01/31 02:53:25;;;;;;;0.40;0.40;;;;;;;;;;4985725;28;20537;-77
2021/01/31 02:55:55;;;;;;;0.40;0.40;;;;;;;;;;4987571;28;20492;-77
2021/01/31 02:58:23;;;;;;;0.30;0.30;;;;;;;;;;4987107;28;20206;-77
2021/01/31 03:00:53;;;;;;;0.30;0.30;;;;;;;;;;4986376;28;20261;-78
2021/01/31 03:03:21;;;;;;;0.40;0.40;;;;;;;;;;4986185;28;20486;-77
2021/01/31 03:05:50;;;;;;;0.40;0.40;;;;;;;;;;4986908;28;20605;-78
2021/01/31 03:08:21;;;;;;;0.40;0.40;;;;;;;;;;4987384;28;20243;-77
2021/01/31 03:10:49;;;;;;;0.30;0.30;;;;;;;;;;4985882;28;20493;-78
2021/01/31 03:13:18;;;;;;;4.57;2.53;;;;;;;;;;4973049;28;20270;-78
2021/01/31 03:15:47;;;;;;;0.30;0.30;;;;;;;;;;4985847;28;20215;-77
2021/01/31 03:18:15;;;;;;;0.40;0.40;;;;;;;;;;4986224;28;20247;-78
2021/01/31 03:20:44;;;;;;;0.40;0.40;;;;;;;;;;4986780;28;20203;-78
2021/01/31 03:25:51;;;;;;;2.20;2.20;;;;;;;;;;5097992;27;20586;-76
2021/01/31 03:28:17;;;;;;;0.30;0.30;;;;;;;;;;5058226;28;20204;-77
2021/01/31 03:30:46;;;;;;;0.30;0.30;;;;;;;;;;5061430;28;20204;-77
2021/01/31 03:33:14;;;;;;;0.40;0.40;;;;;;;;;;5058524;28;20206;-76
2021/01/31 03:35:42;;;;;;;0.37;0.37;;;;;;;;;;5077935;28;20247;-77
2021/01/31 03:38:11;;;;;;;0.40;0.40;;;;;;;;;;5076755;28;20399;-76
2021/01/31 03:40:39;;;;;;;0.40;0.40;;;;;;;;;;5075240;28;20202;-77
2021/01/31 03:43:07;;;;;;;0.43;0.43;;;;;;;;;;5057930;28;20573;-76
2021/01/31 03:45:37;;;;;;;0.40;0.40;;;;;;;;;;5060627;28;20601;-76
2021/01/31 03:48:06;;;;;;;0.40;0.40;;;;;;;;;;5091649;28;20203;-77
2021/01/31 03:50:32;;;;;;;0.40;0.40;;;;;;;;;;5076341;28;20525;-77
2021/01/31 03:52:59;;;;;;;0.40;0.40;;;;;;;;;;5058662;28;20210;-78
2021/01/31 03:55:25;;;;;;;0.40;0.40;;;;;;;;;;5060963;28;20374;-78
2021/01/31 03:57:54;;;;;;;0.40;0.40;;;;;;;;;;5078153;28;20214;-78
2021/01/31 04:00:23;;;;;;;0.40;0.40;;;;;;;;;;5078502;28;20207;-77
2021/01/31 04:02:53;;;;;;;0.40;0.40;;;;;;;;;;5077041;28;20497;-77
2021/01/31 04:05:20;;;;;;;0.40;0.40;;;;;;;;;;5078987;28;20409;-77
2021/01/31 04:07:47;;;;;;;3.43;3.33;;;;;;;;;;5057988;28;20210;-77
2021/01/31 04:10:14;;;;;;;0.40;0.40;;;;;;;;;;5076844;28;20201;-78
2021/01/31 04:12:51;;;;;;;0.57;0.57;;;;;;;;;;5071148;28;20215;-77
2021/01/31 04:15:26;;;;;;;3.73;2.60;;;;;;;;;;5071887;28;20196;-78
2021/01/31 04:17:53;;;;;;;0.40;0.40;;;;;;;;;;5076887;28;20212;-78
2021/01/31 04:20:19;;;;;;;0.40;0.40;;;;;;;;;;5076538;28;20486;-78
2021/01/31 04:22:45;;;;;;;0.40;0.40;;;;;;;;;;5069871;28;20224;-76
2021/01/31 04:25:11;;;;;;;0.40;0.40;;;;;;;;;;5056130;28;20239;-77
2021/01/31 04:27:38;;;;;;;0.40;0.40;;;;;;;;;;5056550;28;20299;-77
2021/01/31 04:30:05;;;;;;;0.40;0.40;;;;;;;;;;5056097;28;20331;-77
2021/01/31 04:32:31;;;;;;;0.40;0.40;;;;;;;;;;5065447;28;20196;-77
2021/01/31 04:34:59;;;;;;;0.30;0.30;;;;;;;;;;5058179;28;20407;-77
2021/01/31 04:37:25;;;;;;;0.40;0.40;;;;;;;;;;5038267;28;20205;-77
2021/01/31 04:39:51;;;;;;;0.40;0.40;;;;;;;;;;5054761;28;20253;-76
2021/01/31 04:42:19;;;;;;;0.67;0.67;;;;;;;;;;5043231;28;20522;-76
2021/01/31 04:44:46;;;;;;;0.40;0.40;;;;;;;;;;5069955;28;20226;-76
2021/01/31 04:47:15;;;;;;;0.50;0.50;;;;;;;;;;5038930;28;20196;-77
2021/01/31 04:49:48;;;;;;;0.40;0.40;;;;;;;;;;5047564;28;20500;-77
2021/01/31 04:52:18;;;;;;;0.93;0.93;;;;;;;;;;5053451;28;20439;-77
2021/01/31 04:54:49;;;;;;;0.40;0.40;;;;;;;;;;5051184;28;20200;-76
2021/01/31 04:57:18;;;;;;;0.40;0.40;;;;;;;;;;5062377;28;20204;-77
2021/01/31 04:59:47;;;;;;;1.33;1.33;;;;;;;;;;5048340;28;20205;-77
2021/01/31 05:02:17;;;;;;;0.40;0.40;;;;;;;;;;5058976;28;20206;-76
2021/01/31 05:04:49;;;;;;;0.43;0.43;;;;;;;;;;5044365;28;20238;-77
2021/01/31 05:07:16;;;;;;;0.40;0.40;;;;;;;;;;5043322;28;20500;-76
2021/01/31 05:09:42;;;;;;;0.40;0.40;;;;;;;;;;5019464;28;20212;-77
2021/01/31 05:12:12;;;;;;;0.40;0.40;;;;;;;;;;5052510;28;20202;-77
2021/01/31 05:14:48;;;;;;;0.40;0.40;;;;;;;;;;5073223;28;20203;-76
2021/01/31 05:17:17;;;;;;;0.40;0.40;;;;;;;;;;5045235;28;20541;-77
2021/01/31 05:19:43;;;;;;;4.37;1.00;;;;;;;;;;5054999;28;20204;-77
2021/01/31 05:22:10;;;;;;;0.40;0.40;;;;;;;;;;5025552;28;20432;-77
2021/01/31 05:24:38;;;;;;;0.40;0.40;;;;;;;;;;5038752;28;20532;-77
2021/01/31 05:27:05;;;;;;;0.90;0.90;;;;;;;;;;5058397;28;20208;-77
2021/01/31 05:29:32;;;;;;;5.10;2.50;;;;;;;;;;5012219;28;20212;-76
2021/01/31 05:32:02;;;;;;;0.93;0.93;;;;;;;;;;5041858;28;20474;-76
2021/01/31 05:34:33;;;;;;;1.07;1.07;;;;;;;;;;5044294;28;20197;-77
2021/01/31 05:37:00;;;;;;;0.70;0.70;;;;;;;;;;5041456;28;20482;-77
2021/01/31 05:39:33;;;;;;;0.60;0.60;;;;;;;;;;5044753;28;20202;-76
2021/01/31 05:42:04;;;;;;;0.40;0.40;;;;;;;;;;5033997;28;20207;-76
2021/01/31 05:44:31;;;;;;;0.40;0.40;;;;;;;;;;5036842;28;20226;-77
2021/01/31 05:46:58;;;;;;;0.40;0.40;;;;;;;;;;5043396;28;20231;-77
2021/01/31 05:49:32;;;;;;;1.07;1.07;;;;;;;;;;5038446;28;20206;-77
2021/01/31 05:51:59;;;;;;;1.17;1.17;;;;;;;;;;5039620;28;20200;-77
2021/01/31 05:54:30;;;;;;;7.03;2.13;;;;;;;;;;5023866;28;20196;-77
2021/01/31 05:56:56;;;;;;;0.47;0.47;;;;;;;;;;5023561;28;20209;-77
2021/01/31 05:59:24;;;;;;;0.40;0.40;;;;;;;;;;5042827;28;20373;-77
2021/01/31 06:01:59;;;;;;;0.40;0.40;;;;;;;;;;5042507;28;20204;-77
2021/01/31 06:04:26;;;;;;;0.40;0.40;;;;;;;;;;5052955;28;20580;-78
2021/01/31 06:06:55;;;;;;;0.60;0.60;;;;;;;;;;5033240;28;20223;-77
2021/01/31 06:09:29;;;;;;;0.40;0.40;;;;;;;;;;5053397;28;20196;-77
2021/01/31 06:12:03;;;;;;;0.40;0.40;;;;;;;;;;5052506;28;20200;-76
2021/01/31 06:14:31;;;;;;;0.40;0.40;;;;;;;;;;5047059;28;20262;-76
2021/01/31 06:17:04;;;;;;;0.40;0.40;;;;;;;;;;5054160;28;20279;-76
2021/01/31 06:19:31;;;;;;;0.40;0.40;;;;;;;;;;5049358;28;20206;-77
2021/01/31 06:21:57;;;;;;;8.40;7.97;;;;;;;;;;5064731;28;20374;-76
2021/01/31 06:24:25;;;;;;;0.40;0.40;;;;;;;;;;5042995;28;20228;-76
2021/01/31 06:26:52;;;;;;;7.40;1.90;;;;;;;;;;5057935;28;20208;-78
2021/01/31 06:29:23;;;;;;;0.40;0.40;;;;;;;;;;5041055;28;20200;-77
2021/01/31 06:31:52;;;;;;;0.40;0.40;;;;;;;;;;5058529;28;20211;-77
2021/01/31 06:34:18;;;;;;;0.40;0.40;;;;;;;;;;5042622;28;20196;-77
2021/01/31 06:36:52;;;;;;;0.40;0.40;;;;;;;;;;5042388;28;20200;-77
2021/01/31 06:39:30;;;;;;;0.40;0.40;;;;;;;;;;5053241;28;20200;-77
2021/01/31 06:42:01;;;;;;;0.40;0.40;;;;;;;;;;5027521;28;20214;-77
2021/01/31 06:44:32;;;;;;;0.40;0.40;;;;;;;;;;5069238;28;20224;-78
2021/01/31 06:47:09;;;;;;;0.40;0.40;;;;;;;;;;5057630;28;20199;-78
2021/01/31 06:49:38;;;;;;;0.40;0.40;;;;;;;;;;5054756;28;20203;-77
2021/01/31 06:52:15;;;;;;;0.40;0.40;;;;;;;;;;5055515;28;20222;-77
2021/01/31 06:54:56;;;;;;;0.50;0.50;;;;;;;;;;5044272;28;20216;-76
2021/01/31 06:57:43;;;;;;;1.33;1.33;;;;;;;;;;5041855;28;20197;-76
2021/01/31 07:00:20;;;;;;;0.40;0.40;;;;;;;;;;5043725;28;20208;-77
2021/01/31 07:03:06;;;;;;;0.40;0.40;;;;;;;;;;5048560;28;20225;-78
2021/01/31 07:05:36;;;;;;;0.50;0.50;;;;;;;;;;5044442;28;20296;-78
2021/01/31 07:08:20;;;;;;;0.50;0.50;;;;;;;;;;5028033;28;20207;-76
2021/01/31 07:11:05;;;;;;;0.50;0.50;;;;;;;;;;5055628;28;20199;-76
2021/01/31 07:13:37;;;;;;;0.50;0.50;;;;;;;;;;5063707;28;20471;-76
2021/01/31 07:16:10;;;;;;;0.43;0.43;;;;;;;;;;5048478;28;20222;-78
2021/01/31 07:18:40;;;;;;;0.40;0.40;;;;;;;;;;5054147;28;20196;-77
2021/01/31 07:21:10;;;;;;;0.43;0.43;;;;;;;;;;5049843;28;20204;-77
2021/01/31 07:23:38;;;;;;;0.40;0.40;;;;;;;;;;5044088;28;20251;-77
2021/01/31 07:26:09;;;;;;;0.40;0.40;;;;;;;;;;5042299;28;20263;-77
2021/01/31 07:28:37;;;;;;;0.40;0.40;;;;;;;;;;5048352;28;20204;-78
2021/01/31 07:31:06;;;;;;;0.43;0.43;;;;;;;;;;5044567;28;20223;-78
2021/01/31 07:33:35;;;;;;;0.40;0.40;;;;;;;;;;5044018;28;20201;-77
2021/01/31 07:36:04;;;;;;;0.40;0.40;;;;;;;;;;5046741;28;20196;-77
2021/01/31 07:38:32;;;;;;;0.40;0.40;;;;;;;;;;5042423;28;20208;-77
2021/01/31 07:40:59;;;;;;;2.23;2.20;;;;;;;;;;5040530;28;20201;-77
2021/01/31 07:43:27;;;;;;;0.57;0.57;;;;;;;;;;5041103;28;20200;-77
2021/01/31 07:45:57;;;;;;;0.50;0.50;;;;;;;;;;5053547;28;20334;-76
2021/01/31 07:48:32;;;;;;;0.50;0.50;;;;;;;;;;5035579;28;20201;-76
2021/01/31 07:50:59;;;;;;;0.40;0.40;;;;;;;;;;5040094;28;20200;-77
2021/01/31 07:53:31;;;;;;;0.40;0.40;;;;;;;;;;5038351;28;20200;-77
2021/01/31 07:56:17;;;;;;;0.50;0.50;;;;;;;;;;5039952;28;20201;-77
2021/01/31 07:58:44;;;;;;;0.50;0.50;;;;;;;;;;5039859;28;20204;-77
2021/01/31 08:01:12;;;;;;;0.50;0.50;;;;;;;;;;5041281;28;20208;-73
2021/01/31 08:03:39;;;;;;;0.50;0.50;;;;;;;;;;5041204;28;20200;-76
2021/01/31 08:06:08;;;;;;;0.40;0.40;;;;;;;;;;5049289;28;20219;-76
2021/01/31 08:08:43;;;;;;;0.40;0.40;;;;;;;;;;5041353;28;20208;-77
2021/01/31 08:11:10;;;;;;;0.50;0.50;;;;;;;;;;5048186;28;20394;-76
2021/01/31 08:13:41;;;;;;;2.50;2.40;;;;;;;;;;5044642;28;20269;-77
2021/01/31 08:16:26;;;;;;;0.40;0.40;;;;;;;;;;5040767;28;20218;-76
2021/01/31 08:19:09;;;;;;;0.40;0.40;;;;;;;;;;5072003;28;20222;-75
2021/01/31 08:21:50;;;;;;;0.40;0.40;;;;;;;;;;5051843;28;20261;-76
2021/01/31 08:24:31;;;;;;;0.40;0.40;;;;;;;;;;5043116;28;20271;-77
2021/01/31 08:26:58;;;;;;;0.40;0.40;;;;;;;;;;5044750;28;20200;-77
2021/01/31 08:29:29;;;;;;;0.50;0.50;;;;;;;;;;5043582;28;20205;-76
2021/01/31 08:32:13;;;;;;;0.50;0.50;;;;;;;;;;5048025;28;20209;-67
2021/01/31 08:34:58;;;;;;;0.40;0.40;;;;;;;;;;5047039;28;20267;-67
2021/01/31 08:37:27;;;;;;;0.40;0.40;;;;;;;;;;5042626;28;20205;-66
2021/01/31 08:39:54;;;;;;;1.43;1.43;;;;;;;;;;5046559;28;20200;-66
2021/01/31 08:42:21;;;;;;;0.40;0.40;;;;;;;;;;5028804;28;20205;-66
2021/01/31 08:44:56;;;;;;;0.57;0.57;;;;;;;;;;5051155;28;20236;-68
2021/01/31 08:47:22;;;;;;;0.40;0.40;;;;;;;;;;5076666;28;20426;-66
2021/01/31 08:49:56;;;;;;;0.30;0.30;;;;;;;;;;5039600;28;20207;-68
2021/01/31 08:52:23;;;;;;;0.40;0.40;;;;;;;;;;5042483;28;20203;-66
2021/01/31 08:54:57;;;;;;;0.97;0.87;;;;;;;;;;5043604;28;20201;-66
2021/01/31 08:57:26;;;;;;;0.30;0.30;;;;;;;;;;5034873;28;20196;-67
2021/01/31 08:59:52;;;;;;;0.80;0.80;;;;;;;;;;5031465;28;20394;-67
2021/01/31 09:02:20;;;;;;;2.80;2.70;;;;;;;;;;5043632;28;20200;-67
2021/01/31 09:04:47;;;;;;;0.40;0.40;;;;;;;;;;5030805;28;20268;-66
2021/01/31 09:07:19;;;;;;;1.70;1.60;;;;;;;;;;5045414;28;20210;-68
2021/01/31 09:09:47;;;;;;;0.30;0.30;;;;;;;;;;5038975;28;20203;-67
2021/01/31 09:12:13;;;;;;;0.40;0.40;;;;;;;;;;5052577;28;20208;-66
2021/01/31 09:14:42;;;;;;;1.37;1.37;;;;;;;;;;5034410;28;20204;-67
2021/01/31 09:17:09;;;;;;;0.30;0.30;;;;;;;;;;5026684;28;20223;-67
2021/01/31 09:19:36;;;;;;;0.30;0.30;;;;;;;;;;5032344;28;20203;-68
2021/01/31 09:22:06;;;;;;;0.20;0.20;;;;;;;;;;5031546;28;20212;-67
2021/01/31 09:24:35;;;;;;;0.20;0.20;;;;;;;;;;5034475;28;20543;-67
2021/01/31 09:27:02;;;;;;;5.67;4.27;;;;;;;;;;5039646;28;20196;-67
2021/01/31 09:29:30;;;;;;;0.30;0.30;;;;;;;;;;5016257;28;20280;-67
2021/01/31 09:31:59;;;;;;;0.20;0.20;;;;;;;;;;5039047;28;20213;-68
2021/01/31 09:34:26;;;;;;;0.23;0.23;;;;;;;;;;5020843;28;20200;-67
2021/01/31 09:37:05;;;;;;;0.20;0.20;;;;;;;;;;5042966;28;20212;-66
2021/01/31 09:39:33;;;;;;;0.20;0.20;;;;;;;;;;5037298;28;20200;-67
2021/01/31 09:41:59;;;;;;;0.20;0.20;;;;;;;;;;5027718;28;20200;-68
2021/01/31 09:44:26;;;;;;;0.20;0.20;;;;;;;;;;5037752;28;20224;-66
2021/01/31 09:46:52;;;;;;;0.27;0.27;;;;;;;;;;5040722;28;20200;-66
2021/01/31 09:49:22;;;;;;;0.20;0.20;;;;;;;;;;5035165;28;20201;-67
2021/01/31 09:51:48;;;;;;;0.20;0.20;;;;;;;;;;5041833;28;20205;-67
2021/01/31 09:54:16;;;;;;;0.40;0.40;;;;;;;;;;5038587;28;20247;-67
2021/01/31 09:56:44;;;;;;;0.20;0.20;;;;;;;;;;5039232;28;20212;-67
2021/01/31 09:59:18;;;;;;;0.20;0.20;;;;;;;;;;5023720;28;20221;-68
2021/01/31 10:01:45;;;;;;;0.10;0.10;;;;;;;;;;5041606;28;20200;-68
2021/01/31 10:04:17;;;;;;;0.20;0.20;;;;;;;;;;5035622;28;20201;-66
2021/01/31 10:06:45;;;;;;;0.60;0.40;;;;;;;;;;5029485;28;20206;-66
2021/01/31 10:09:11;;;;;;;0.20;0.20;;;;;;;;;;5023675;28;20506;-67
2021/01/31 10:11:38;;;;;;;0.20;0.20;;;;;;;;;;5031274;28;20209;-68
2021/01/31 10:14:06;;;;;;;0.20;0.20;;;;;;;;;;5030149;28;20210;-66
2021/01/31 10:16:34;;;;;;;0.20;0.20;;;;;;;;;;5036263;28;20209;-66
2021/01/31 10:19:10;;;;;;;0.20;0.20;;;;;;;;;;5040290;28;20214;-67
2021/01/31 10:21:37;;;;;;;0.20;0.20;;;;;;;;;;5026760;28;20201;-67
2021/01/31 10:24:10;;;;;;;0.30;0.30;;;;;;;;;;5035716;28;20606;-67
2021/01/31 10:26:36;;;;;;;0.20;0.20;;;;;;;;;;5040784;28;20203;-67
2021/01/31 10:29:04;;;;;;;0.20;0.20;;;;;;;;;;5039492;28;20525;-67
2021/01/31 10:31:32;;;;;;;0.20;0.20;;;;;;;;;;5041296;28;20345;-66
2021/01/31 10:34:00;;;;;;;0.20;0.20;;;;;;;;;;5037324;28;20287;-68
2021/01/31 10:36:27;;;;;;;0.10;0.10;;;;;;;;;;5029646;28;20239;-66
2021/01/31 10:38:55;;;;;;;0.20;0.20;;;;;;;;;;5038221;28;20207;-66
2021/01/31 10:41:23;;;;;;;0.20;0.20;;;;;;;;;;5035265;28;20200;-67
2021/01/31 10:44:01;;;;;;;0.20;0.20;;;;;;;;;;5032411;28;20239;-67
2021/01/31 10:46:27;;;;;;;0.63;0.63;;;;;;;;;;5031819;28;20200;-68
2021/01/31 10:48:54;;;;;;;0.20;0.20;;;;;;;;;;5035902;28;20251;-66
2021/01/31 10:51:20;;;;;;;0.10;0.10;;;;;;;;;;5036930;28;20223;-67
2021/01/31 10:53:47;;;;;;;0.10;0.10;;;;;;;;;;5032992;28;20262;-65
2021/01/31 10:56:13;;;;;;;0.10;0.10;;;;;;;;;;5014541;28;20214;-68
2021/01/31 10:58:41;;;;;;;0.17;0.17;;;;;;;;;;5036727;28;20223;-67
2021/01/31 11:01:08;;;;;;;0.10;0.10;;;;;;;;;;5030718;28;20235;-67
2021/01/31 11:03:34;;;;;;;0.30;0.30;;;;;;;;;;5032048;28;20327;-67
2021/01/31 11:06:01;;;;;;;0.10;0.10;;;;;;;;;;5035379;28;20314;-67
2021/01/31 11:08:29;;;;;;;0.27;0.27;;;;;;;;;;5032068;28;20196;-67
2021/01/31 11:10:55;;;;;;;0.20;0.20;;;;;;;;;;5040007;28;20207;-68
2021/01/31 11:13:22;;;;;;;0.10;0.10;;;;;;;;;;5032428;28;20269;-67
2021/01/31 11:15:50;;;;;;;0.20;0.20;;;;;;;;;;5038291;28;20541;-69
2021/01/31 11:18:16;;;;;;;0.10;0.10;;;;;;;;;;5016183;28;20220;-67
2021/01/31 11:20:42;;;;;;;0.10;0.10;;;;;;;;;;5049263;28;20366;-68
2021/01/31 11:23:09;;;;;;;0.10;0.10;;;;;;;;;;5038603;28;20224;-67
2021/01/31 11:25:35;;;;;;;0.10;0.10;;;;;;;;;;5033925;28;20523;-66
2021/01/31 11:28:02;;;;;;;0.10;0.10;;;;;;;;;;5036598;28;20198;-66
2021/01/31 11:30:29;;;;;;;0.20;0.20;;;;;;;;;;5034878;28;20479;-66
2021/01/31 11:32:56;;;;;;;0.10;0.10;;;;;;;;;;5037389;28;20207;-68
2021/01/31 11:35:22;;;;;;;0.10;0.10;;;;;;;;;;5040678;28;20203;-67
2021/01/31 11:37:49;;;;;;;0.13;0.13;;;;;;;;;;5039694;28;20249;-66
2021/01/31 11:40:16;;;;;;;0.10;0.10;;;;;;;;;;5040298;28;20420;-66
2021/01/31 11:42:42;;;;;;;0.20;0.20;;;;;;;;;;5041878;28;20238;-67
2021/01/31 11:45:09;;;;;;;0.10;0.10;;;;;;;;;;5021870;28;20292;-66
2021/01/31 11:47:35;;;;;;;0.20;0.20;;;;;;;;;;5044725;28;20214;-66
2021/01/31 11:50:03;;;;;;;0.10;0.10;;;;;;;;;;5043879;28;20204;-67
2021/01/31 11:52:29;;;;;;;0.20;0.20;;;;;;;;;;5039640;28;20209;-67
2021/01/31 11:54:56;;;;;;;0.20;0.20;;;;;;;;;;5041084;28;20554;-67
2021/01/31 11:57:22;;;;;;;0.20;0.20;;;;;;;;;;5026656;28;20262;-67
2021/01/31 11:59:48;;;;;;;0.20;0.20;;;;;;;;;;5041031;28;20211;-66
2021/01/31 12:02:15;;;;;;;0.20;0.20;;;;;;;;;;5041885;28;20275;-67
2021/01/31 12:04:41;;;;;;;0.10;0.10;;;;;;;;;;5044830;28;20227;-67
2021/01/31 12:07:08;;;;;;;0.60;0.60;;;;;;;;;;5055311;28;20376;-68
2021/01/31 12:09:34;;;;;;;0.60;0.60;;;;;;;;;;5059480;28;20434;-67
2021/01/31 12:12:01;;;;;;;0.20;0.20;;;;;;;;;;5053256;28;20202;-67
2021/01/31 12:14:28;;;;;;;0.20;0.20;;;;;;;;;;5036324;28;20268;-67
2021/01/31 12:16:54;;;;;;;0.20;0.20;;;;;;;;;;5043531;28;20201;-67
2021/01/31 12:19:23;;;;;;;0.20;0.20;;;;;;;;;;5032329;28;20213;-68
2021/01/31 12:21:49;;;;;;;0.20;0.20;;;;;;;;;;5043855;28;20442;-66
2021/01/31 12:24:16;;;;;;;0.20;0.20;;;;;;;;;;5030709;28;20229;-66
2021/01/31 12:26:42;;;;;;;0.40;0.40;;;;;;;;;;5055597;28;20373;-67
2021/01/31 12:29:09;;;;;;;0.20;0.20;;;;;;;;;;5034475;28;20406;-68
2021/01/31 12:31:38;;;;;;;0.20;0.20;;;;;;;;;;5032581;28;20204;-68
2021/01/31 12:34:04;;;;;;;0.47;0.47;;;;;;;;;;5045648;28;20205;-67
2021/01/31 12:36:31;;;;;;;0.20;0.20;;;;;;;;;;5034174;28;20397;-67
2021/01/31 12:38:57;;;;;;;0.20;0.20;;;;;;;;;;5023320;28;20202;-67
2021/01/31 12:41:24;;;;;;;0.20;0.20;;;;;;;;;;5051217;28;20220;-69
2021/01/31 12:43:50;;;;;;;0.20;0.20;;;;;;;;;;5059093;28;20426;-69
2021/01/31 12:46:18;;;;;;;0.30;0.30;;;;;;;;;;5059063;28;20274;-70
2021/01/31 12:48:44;;;;;;;0.20;0.20;;;;;;;;;;5024758;28;20438;-70
2021/01/31 12:51:10;;;;;;;0.20;0.20;;;;;;;;;;5042883;28;20373;-70
2021/01/31 12:53:36;;;;;;;0.30;0.30;;;;;;;;;;5033915;28;20197;-70
2021/01/31 12:56:02;;;;;;;0.23;0.23;;;;;;;;;;5034404;28;20278;-69
2021/01/31 12:58:29;;;;;;;0.30;0.30;;;;;;;;;;5037536;28;20558;-71
2021/01/31 13:00:57;;;;;;;4.60;3.57;;;;;;;;;;5030838;28;20205;-68
2021/01/31 13:03:23;;;;;;;0.20;0.20;;;;;;;;;;5033882;28;20200;-68
2021/01/31 13:05:50;;;;;;;0.20;0.20;;;;;;;;;;5037848;28;20217;-69
2021/01/31 13:08:16;;;;;;;0.77;0.77;;;;;;;;;;5041613;28;20279;-68
2021/01/31 13:10:42;;;;;;;0.93;0.90;;;;;;;;;;5035987;28;20218;-69
2021/01/31 13:13:08;;;;;;;1.30;1.30;;;;;;;;;;5043660;28;20196;-69
2021/01/31 13:15:36;;;;;;;0.30;0.30;;;;;;;;;;5043124;28;20610;-68
2021/01/31 13:18:02;;;;;;;0.20;0.20;;;;;;;;;;5036075;28;20208;-68
2021/01/31 13:20:29;;;;;;;0.30;0.30;;;;;;;;;;5024265;28;20229;-68
2021/01/31 13:22:56;;;;;;;0.30;0.30;;;;;;;;;;5042546;28;20232;-69
2021/01/31 13:25:22;;;;;;;0.33;0.33;;;;;;;;;;5041573;28;20574;-69
2021/01/31 13:27:48;;;;;;;0.57;0.57;;;;;;;;;;5038869;28;20205;-68
2021/01/31 13:30:16;;;;;;;0.20;0.20;;;;;;;;;;5039208;28;20228;-68
2021/01/31 13:32:43;;;;;;;0.20;0.20;;;;;;;;;;5045431;28;20273;-68
2021/01/31 13:35:10;;;;;;;0.30;0.30;;;;;;;;;;5040019;28;20203;-68
2021/01/31 13:37:36;;;;;;;0.40;0.40;;;;;;;;;;5041910;28;20454;-68
2021/01/31 13:40:03;;;;;;;0.30;0.30;;;;;;;;;;5018291;28;20209;-68
2021/01/31 13:42:29;;;;;;;0.30;0.30;;;;;;;;;;5041923;28;20545;-67
2021/01/31 13:44:56;;;;;;;0.30;0.30;;;;;;;;;;5037264;28;20231;-68
2021/01/31 13:47:22;;;;;;;0.20;0.20;;;;;;;;;;5030150;28;20212;-68
2021/01/31 13:49:51;;;;;;;0.30;0.30;;;;;;;;;;5039506;28;20211;-68
2021/01/31 13:52:17;;;;;;;0.23;0.23;;;;;;;;;;5045246;28;20504;-69
2021/01/31 13:54:45;;;;;;;0.30;0.30;;;;;;;;;;5031430;28;20219;-70
2021/01/31 13:57:11;;;;;;;0.30;0.30;;;;;;;;;;5029761;28;20487;-70
2021/01/31 13:59:38;;;;;;;0.40;0.40;;;;;;;;;;5037926;28;20398;-70
2021/01/31 14:02:04;;;;;;;0.20;0.20;;;;;;;;;;5031286;28;20557;-70
2021/01/31 14:04:31;;;;;;;0.20;0.20;;;;;;;;;;5030699;28;20211;-69
2021/01/31 14:07:01;;;;;;;0.30;0.30;;;;;;;;;;5040974;28;20196;-69
2021/01/31 14:09:27;;;;;;;0.30;0.30;;;;;;;;;;5037972;28;20211;-69
2021/01/31 14:11:53;;;;;;;0.20;0.20;;;;;;;;;;5026814;28;20513;-70
2021/01/31 14:14:19;;;;;;;0.30;0.30;;;;;;;;;;5038804;28;20205;-69
2021/01/31 14:16:46;;;;;;;0.30;0.30;;;;;;;;;;5039032;28;20223;-69
2021/01/31 14:19:12;;;;;;;0.30;0.30;;;;;;;;;;5020409;28;20281;-71
2021/01/31 14:21:39;;;;;;;0.30;0.30;;;;;;;;;;5020495;28;20496;-70
2021/01/31 14:24:09;;;;;;;0.20;0.20;;;;;;;;;;5039790;28;20263;-69
2021/01/31 14:26:35;;;;;;;0.30;0.30;;;;;;;;;;5040688;28;20225;-70
2021/01/31 14:29:03;;;;;;;0.20;0.20;;;;;;;;;;5037903;28;20212;-69
2021/01/31 14:31:29;;;;;;;0.27;0.27;;;;;;;;;;5040595;28;20208;-68
2021/01/31 14:33:56;;;;;;;0.20;0.20;;;;;;;;;;5038894;28;20497;-70
2021/01/31 14:36:22;;;;;;;0.20;0.20;;;;;;;;;;5037738;28;20196;-70
2021/01/31 14:38:49;;;;;;;0.23;0.23;;;;;;;;;;5036848;28;20215;-67
2021/01/31 14:41:16;;;;;;;0.20;0.20;;;;;;;;;;5027459;28;20212;-67
2021/01/31 14:43:43;;;;;;;0.30;0.30;;;;;;;;;;5039793;28;20868;-67
2021/01/31 14:46:09;;;;;;;0.30;0.30;;;;;;;;;;5027189;28;20519;-68
2021/01/31 14:48:36;;;;;;;0.80;0.80;;;;;;;;;;5028823;28;20540;-69
2021/01/31 14:51:03;;;;;;;0.20;0.20;;;;;;;;;;5020380;28;20276;-67
2021/01/31 14:53:29;;;;;;;0.33;0.33;;;;;;;;;;5045402;28;20867;-69
2021/01/31 14:55:55;;;;;;;0.30;0.30;;;;;;;;;;5040583;28;20212;-69